createdAt,value
2023-05-22T00:00:17.719Z,97353.56
2023-05-22T00:02:46.142Z,97350.34
2023-05-22T00:05:18.546Z,97351.06
2023-05-22T00:07:46.866Z,97351.19
2023-05-22T00:10:15.016Z,97347.78
2023-05-22T00:12:44.530Z,97349.72
2023-05-22T00:15:13.315Z,97352.13
2023-05-22T00:17:42.310Z,97343.84
2023-05-22T00:20:11.353Z,97337.97
2023-05-22T00:22:39.503Z,97344.19
2023-05-22T00:25:09.149Z,97341.22
2023-05-22T00:27:37.308Z,97331.06
2023-05-22T00:30:09.065Z,97338.69
2023-05-22T00:32:37.314Z,97336.22
2023-05-22T00:35:06.639Z,97331.66
2023-05-22T00:37:34.794Z,97332.34
2023-05-22T00:40:03.832Z,97319.03
2023-05-22T00:42:32.165Z,97318.47
2023-05-22T00:45:00.479Z,97315.63
2023-05-22T00:47:30.066Z,97317.72
2023-05-22T00:49:58.444Z,97319.28
2023-05-22T00:52:26.805Z,97319.53
2023-05-22T00:54:55.191Z,97313.75
2023-05-22T00:57:24.663Z,97314.31
2023-05-22T00:59:52.908Z,97314.53
2023-05-22T01:02:21.422Z,97309.66
2023-05-22T01:04:50.951Z,97308.44
2023-05-22T01:07:19.622Z,97302.91
2023-05-22T01:09:47.988Z,97304.06
2023-05-22T01:12:27.969Z,97303.47
2023-05-22T01:15:02.811Z,97306.13
2023-05-22T01:17:37.312Z,97316.31
2023-05-22T01:20:14.488Z,97327.03
2023-05-22T01:23:00.246Z,97349.13
2023-05-22T01:25:55.357Z,97344.84
2023-05-22T01:28:37.806Z,97325.09
2023-05-22T01:31:11.427Z,97324.03
2023-05-22T01:33:47.029Z,97341.50
2023-05-22T01:36:16.861Z,97349.75
2023-05-22T01:38:45.270Z,97343.28
2023-05-22T01:41:13.509Z,97325.97
2023-05-22T01:43:42.849Z,97329.91
2023-05-22T01:46:12.468Z,97329.81
2023-05-22T01:48:40.711Z,97330.38
2023-05-22T01:51:13.560Z,97328.34
2023-05-22T01:53:47.340Z,97333.03
2023-05-22T01:56:17.176Z,97327.41
2023-05-22T01:58:52.611Z,97321.56
2023-05-22T02:01:23.497Z,97323.72
2023-05-22T02:03:56.594Z,97323.31
2023-05-22T02:06:27.150Z,97322.34
2023-05-22T02:08:56.061Z,97310.59
2023-05-22T02:11:26.858Z,97311.88
2023-05-22T02:13:57.016Z,97308.03
2023-05-22T02:16:28.857Z,97302.84
2023-05-22T02:19:06.569Z,97298.88
2023-05-22T02:21:37.327Z,97299.81
2023-05-22T02:24:06.110Z,97304.03
2023-05-22T02:26:34.467Z,97296.78
2023-05-22T02:29:03.432Z,97301.50
2023-05-22T02:31:33.201Z,97300.72
2023-05-22T02:34:01.406Z,97301.53
2023-05-22T02:36:30.975Z,97297.06
2023-05-22T02:38:59.684Z,97300.34
2023-05-22T02:41:28.059Z,97298.59
2023-05-22T02:43:56.579Z,97284.63
2023-05-22T02:46:24.877Z,97286.81
2023-05-22T02:48:54.468Z,97291.69
2023-05-22T02:51:22.642Z,97288.63
2023-05-22T02:53:50.802Z,97289.94
2023-05-22T02:56:19.075Z,97290.66
2023-05-22T02:58:47.258Z,97288.00
2023-05-22T03:01:15.685Z,97289.72
2023-05-22T03:03:44.080Z,97304.56
2023-05-22T03:06:13.850Z,97296.47
2023-05-22T03:08:43.657Z,97300.06
2023-05-22T03:11:11.880Z,97297.19
2023-05-22T03:13:40.100Z,97293.91
2023-05-22T03:16:08.524Z,97295.84
2023-05-22T03:18:40.620Z,97299.94
2023-05-22T03:21:08.791Z,97292.63
2023-05-22T03:23:38.368Z,97296.09
2023-05-22T03:26:06.596Z,97297.88
2023-05-22T03:28:37.752Z,97296.59
2023-05-22T03:31:09.420Z,97297.31
2023-05-22T03:33:51.247Z,97292.03
2023-05-22T03:36:19.744Z,97296.81
2023-05-22T03:38:49.285Z,97285.63
2023-05-22T03:41:17.464Z,97287.25
2023-05-22T03:43:46.802Z,97278.03
2023-05-22T03:46:15.146Z,97277.75
2023-05-22T03:48:43.365Z,97282.88
2023-05-22T03:51:11.584Z,97290.22
2023-05-22T03:53:39.744Z,97282.31
2023-05-22T03:56:09.481Z,97275.72
2023-05-22T03:58:37.642Z,97282.69
2023-05-22T04:01:10.012Z,97274.44
2023-05-22T04:03:38.370Z,97282.50
2023-05-22T04:06:07.646Z,97288.06
2023-05-22T04:08:35.990Z,97288.66
2023-05-22T04:11:05.462Z,97283.09
2023-05-22T04:13:35.856Z,97283.69
2023-05-22T04:16:04.654Z,97280.81
2023-05-22T04:18:32.925Z,97291.00
2023-05-22T04:21:01.466Z,97291.13
2023-05-22T04:23:29.688Z,97291.75
2023-05-22T04:25:58.328Z,97287.66
2023-05-22T04:28:26.761Z,97285.66
2023-05-22T04:30:57.670Z,97293.31
2023-05-22T04:33:25.978Z,97291.63
2023-05-22T04:35:54.584Z,97291.31
2023-05-22T04:38:26.276Z,97285.56
2023-05-22T04:40:55.110Z,97285.41
2023-05-22T04:43:26.607Z,97286.56
2023-05-22T04:45:56.577Z,97289.25
2023-05-22T04:48:25.098Z,97284.81
2023-05-22T04:50:54.315Z,97285.44
2023-05-22T04:53:22.726Z,97289.72
2023-05-22T04:55:50.914Z,97283.50
2023-05-22T04:58:19.141Z,97288.03
2023-05-22T05:00:47.596Z,97291.78
2023-05-22T05:03:17.308Z,97290.66
2023-05-22T05:05:46.009Z,97292.22
2023-05-22T05:08:14.228Z,97298.72
2023-05-22T05:10:42.513Z,97300.28
2023-05-22T05:13:10.740Z,97293.56
2023-05-22T05:15:40.691Z,97298.97
2023-05-22T05:18:09.734Z,97293.19
2023-05-22T05:20:39.649Z,97310.06
2023-05-22T05:23:10.064Z,97301.41
2023-05-22T05:25:39.015Z,97306.78
2023-05-22T05:28:11.205Z,97300.47
2023-05-22T05:30:40.816Z,97293.34
2023-05-22T05:33:27.837Z,97304.53
2023-05-22T05:36:16.428Z,97298.91
2023-05-22T05:38:46.652Z,97304.47
2023-05-22T05:41:16.227Z,97305.25
2023-05-22T05:43:46.656Z,97301.72
2023-05-22T05:46:15.878Z,97306.84
2023-05-22T05:48:44.079Z,97306.41
2023-05-22T05:51:12.577Z,97303.72
2023-05-22T05:53:44.824Z,97301.53
2023-05-22T05:56:13.072Z,97303.66
2023-05-22T05:58:41.270Z,97308.06
2023-05-22T06:01:36.021Z,97297.47
2023-05-22T06:04:05.591Z,97291.78
2023-05-22T06:06:36.611Z,97300.13
2023-05-22T06:09:12.491Z,97299.72
2023-05-22T06:11:59.493Z,97291.88
2023-05-22T06:14:27.948Z,97293.78
2023-05-22T06:16:56.421Z,97294.13
2023-05-22T06:19:24.727Z,97290.41
2023-05-22T06:21:53.107Z,97299.25
2023-05-22T06:24:23.754Z,97298.56
2023-05-22T06:26:51.988Z,97298.03
2023-05-22T06:29:20.316Z,97291.56
2023-05-22T06:31:49.335Z,97292.50
2023-05-22T06:34:21.887Z,97290.47
2023-05-22T06:36:52.162Z,97291.25
2023-05-22T06:39:26.055Z,97299.13
2023-05-22T06:42:29.867Z,97293.44
2023-05-22T06:45:21.433Z,97298.63
2023-05-22T06:48:05.419Z,97299.84
2023-05-22T06:50:38.379Z,97295.59
2023-05-22T06:53:06.734Z,97301.38
2023-05-22T06:55:36.534Z,97301.59
2023-05-22T06:58:11.727Z,97295.84
2023-05-22T07:00:40.779Z,97303.41
2023-05-22T07:03:15.220Z,97295.16
2023-05-22T07:05:59.527Z,97296.69
2023-05-22T07:08:30.729Z,97286.84
2023-05-22T07:11:01.958Z,97281.44
2023-05-22T07:13:32.249Z,97288.53
2023-05-22T07:16:01.144Z,97298.66
2023-05-22T07:18:29.582Z,97293.66
2023-05-22T07:20:58.124Z,97295.25
2023-05-22T07:23:26.540Z,97293.56
2023-05-22T07:25:54.763Z,97293.31
2023-05-22T07:28:27.929Z,97294.44
2023-05-22T07:31:12.344Z,97294.28
2023-05-22T07:33:40.705Z,97298.06
2023-05-22T07:36:09.351Z,97285.72
2023-05-22T07:38:40.165Z,97286.63
2023-05-22T07:41:08.449Z,97294.44
2023-05-22T07:43:38.236Z,97296.97
2023-05-22T07:46:07.355Z,97296.97
2023-05-22T07:48:43.694Z,97285.13
2023-05-22T07:51:13.623Z,97297.63
2023-05-22T07:53:42.973Z,97293.72
2023-05-22T07:56:11.323Z,97291.66
2023-05-22T07:58:41.069Z,97287.81
2023-05-22T08:01:09.727Z,97289.03
2023-05-22T08:03:38.190Z,97289.91
2023-05-22T08:06:06.744Z,97278.69
2023-05-22T08:08:35.174Z,97287.28
2023-05-22T08:11:04.404Z,97281.06
2023-05-22T08:13:33.173Z,97281.19
2023-05-22T08:16:02.764Z,97278.91
2023-05-22T08:18:30.963Z,97281.72
2023-05-22T08:21:00.298Z,97276.84
2023-05-22T08:23:28.541Z,97273.59
2023-05-22T08:25:56.786Z,97272.13
2023-05-22T08:28:25.015Z,97272.75
2023-05-22T08:30:54.556Z,97264.38
2023-05-22T08:33:24.405Z,97266.50
2023-05-22T08:35:52.575Z,97266.81
2023-05-22T08:38:20.946Z,97263.41
2023-05-22T08:40:50.360Z,97263.72
2023-05-22T08:43:22.149Z,97269.19
2023-05-22T08:45:56.131Z,97264.22
2023-05-22T08:48:25.834Z,97266.09
2023-05-22T08:50:57.560Z,97258.81
2023-05-22T08:53:26.664Z,97261.31
2023-05-22T08:55:54.902Z,97260.38
2023-05-22T08:58:23.385Z,97258.81
2023-05-22T09:00:51.892Z,97256.50
2023-05-22T09:03:21.646Z,97263.16
2023-05-22T09:05:52.339Z,97258.66
2023-05-22T09:08:21.368Z,97252.53
2023-05-22T09:10:49.794Z,97256.84
2023-05-22T09:13:28.387Z,97251.88
2023-05-22T09:16:00.230Z,97247.63
2023-05-22T09:18:29.576Z,97247.78
2023-05-22T09:21:04.953Z,97249.97
2023-05-22T09:23:35.184Z,97252.00
2023-05-22T09:26:04.193Z,97252.53
2023-05-22T09:28:35.302Z,97250.59
2023-05-22T09:31:04.675Z,97252.63
2023-05-22T09:33:33.446Z,97258.69
2023-05-22T09:36:03.164Z,97246.66
2023-05-22T09:38:31.624Z,97261.41
2023-05-22T09:40:59.840Z,97259.47
2023-05-22T09:43:28.073Z,97253.41
2023-05-22T09:46:02.491Z,97249.31
2023-05-22T09:48:31.041Z,97244.78
2023-05-22T09:51:02.486Z,97237.53
2023-05-22T09:53:31.159Z,97243.44
2023-05-22T09:56:01.072Z,97242.88
2023-05-22T09:58:32.035Z,97238.94
2023-05-22T10:01:00.460Z,97235.09
2023-05-22T10:03:28.808Z,97237.38
2023-05-22T10:05:57.405Z,97231.06
2023-05-22T10:08:29.459Z,97231.19
2023-05-22T10:10:58.617Z,97228.28
2023-05-22T10:13:27.724Z,97225.19
2023-05-22T10:15:56.519Z,97230.94
2023-05-22T10:18:24.777Z,97233.56
2023-05-22T10:20:53.232Z,97233.56
2023-05-22T10:23:22.654Z,97227.78
2023-05-22T10:25:53.230Z,97231.47
2023-05-22T10:28:25.175Z,97224.56
2023-05-22T10:30:59.865Z,97235.25
2023-05-22T10:33:58.461Z,97233.44
2023-05-22T10:36:37.892Z,97229.78
2023-05-22T10:39:13.889Z,97217.00
2023-05-22T10:41:43.548Z,97222.03
2023-05-22T10:44:11.708Z,97226.31
2023-05-22T10:46:39.985Z,97219.31
2023-05-22T10:49:08.957Z,97212.38
2023-05-22T10:51:37.091Z,97208.56
2023-05-22T10:54:05.768Z,97211.00
2023-05-22T10:56:35.398Z,97203.00
2023-05-22T10:59:07.862Z,97202.31
2023-05-22T11:01:38.389Z,97196.72
2023-05-22T11:04:16.165Z,97192.75
2023-05-22T11:06:50.678Z,97206.81
2023-05-22T11:09:22.925Z,97196.00
2023-05-22T11:12:19.623Z,97195.94
2023-05-22T11:14:58.303Z,97192.09
2023-05-22T11:17:29.124Z,97189.72
2023-05-22T11:20:02.194Z,97170.94
2023-05-22T11:22:36.726Z,97172.44
2023-05-22T11:25:08.177Z,97174.28
2023-05-22T11:27:37.571Z,97168.63
2023-05-22T11:30:08.568Z,97166.59
2023-05-22T11:32:37.563Z,97157.13
2023-05-22T11:35:08.276Z,97156.59
2023-05-22T11:37:39.688Z,97150.63
2023-05-22T11:40:09.003Z,97153.63
2023-05-22T11:42:37.761Z,97155.50
2023-05-22T11:45:08.555Z,97153.13
2023-05-22T11:47:36.878Z,97160.06
2023-05-22T11:50:06.828Z,97152.47
2023-05-22T11:52:36.421Z,97150.63
2023-05-22T11:55:06.343Z,97134.78
2023-05-22T11:57:35.418Z,97139.63
2023-05-22T12:00:06.467Z,97132.81
2023-05-22T12:02:45.862Z,97143.66
2023-05-22T12:05:16.005Z,97140.91
2023-05-22T12:07:44.660Z,97131.13
2023-05-22T12:10:12.905Z,97132.19
2023-05-22T12:12:41.321Z,97125.28
2023-05-22T12:15:10.604Z,97130.66
2023-05-22T12:17:39.281Z,97125.66
2023-05-22T12:20:09.391Z,97133.25
2023-05-22T12:22:42.318Z,97129.91
2023-05-22T12:25:15.985Z,97120.88
2023-05-22T12:27:44.700Z,97127.13
2023-05-22T12:30:15.123Z,97128.59
2023-05-22T12:32:48.413Z,97129.16
2023-05-22T12:35:19.132Z,97126.69
2023-05-22T12:37:51.240Z,97126.44
2023-05-22T12:40:19.740Z,97125.69
2023-05-22T12:42:50.228Z,97121.19
2023-05-22T12:45:18.855Z,97127.41
2023-05-22T12:47:47.384Z,97125.25
2023-05-22T12:50:17.055Z,97130.44
2023-05-22T12:52:45.270Z,97125.00
2023-05-22T12:55:13.457Z,97117.53
2023-05-22T12:57:41.661Z,97114.91
2023-05-22T13:00:11.313Z,97114.78
2023-05-22T13:02:39.648Z,97120.75
2023-05-22T13:05:08.501Z,97118.03
2023-05-22T13:07:38.206Z,97113.50
2023-05-22T13:10:07.310Z,97119.75
2023-05-22T13:12:35.501Z,97121.69
2023-05-22T13:15:04.129Z,97106.75
2023-05-22T13:17:33.938Z,97110.25
2023-05-22T13:20:02.090Z,97100.75
2023-05-22T13:22:30.277Z,97110.44
2023-05-22T13:24:59.858Z,97103.16
2023-05-22T13:27:28.230Z,97095.75
2023-05-22T13:29:56.444Z,97096.81
2023-05-22T13:32:24.668Z,97092.88
2023-05-22T13:34:52.866Z,97095.28
2023-05-22T13:37:22.262Z,97092.00
2023-05-22T13:39:50.424Z,97087.97
2023-05-22T13:42:20.271Z,97096.50
2023-05-22T13:44:48.478Z,97090.66
2023-05-22T13:47:16.786Z,97096.31
2023-05-22T13:49:45.152Z,97098.56
2023-05-22T13:52:13.284Z,97090.34
2023-05-22T13:54:41.571Z,97096.31
2023-05-22T13:57:09.795Z,97090.28
2023-05-22T13:59:39.282Z,97086.06
2023-05-22T14:02:08.618Z,97080.47
2023-05-22T14:04:36.872Z,97090.63
2023-05-22T14:07:05.486Z,97084.44
2023-05-22T14:09:33.682Z,97078.53
2023-05-22T14:12:02.660Z,97073.94
2023-05-22T14:14:30.819Z,97071.94
2023-05-22T14:17:00.564Z,97074.44
2023-05-22T14:19:28.933Z,97072.25
2023-05-22T14:21:57.075Z,97056.44
2023-05-22T14:24:25.229Z,97057.84
2023-05-22T14:26:57.941Z,97057.78
2023-05-22T14:29:26.569Z,97068.13
2023-05-22T14:32:04.998Z,97060.63
2023-05-22T14:34:33.154Z,97054.78
2023-05-22T14:37:01.323Z,97053.28
2023-05-22T14:39:29.594Z,97055.31
2023-05-22T14:41:57.810Z,97052.63
2023-05-22T14:44:25.934Z,97049.41
2023-05-22T14:46:54.772Z,97058.63
2023-05-22T14:49:24.318Z,97056.63
2023-05-22T14:51:52.989Z,97058.78
2023-05-22T14:54:23.696Z,97051.56
2023-05-22T14:56:51.868Z,97053.75
2023-05-22T14:59:20.050Z,97057.31
2023-05-22T15:01:50.501Z,97047.03
2023-05-22T15:04:18.923Z,97044.03
2023-05-22T15:06:48.468Z,97038.31
2023-05-22T15:09:17.126Z,97038.00
2023-05-22T15:11:46.840Z,97023.25
2023-05-22T15:14:14.973Z,97032.66
2023-05-22T15:16:43.696Z,97023.78
2023-05-22T15:19:12.017Z,97030.97
2023-05-22T15:21:42.165Z,97018.69
2023-05-22T15:24:11.777Z,97021.94
2023-05-22T15:26:39.915Z,97021.91
2023-05-22T15:29:08.120Z,97022.25
2023-05-22T15:31:36.482Z,97023.53
2023-05-22T15:34:04.894Z,97019.38
2023-05-22T15:36:33.889Z,97019.22
2023-05-22T15:39:02.845Z,97031.97
2023-05-22T15:41:32.411Z,97024.75
2023-05-22T15:44:00.612Z,97026.22
2023-05-22T15:46:29.044Z,97031.63
2023-05-22T15:48:57.394Z,97034.78
2023-05-22T15:51:25.692Z,97040.00
2023-05-22T15:53:53.887Z,97043.00
2023-05-22T15:56:23.458Z,97050.06
2023-05-22T15:58:53.090Z,97042.63
2023-05-22T16:01:21.341Z,97044.84
2023-05-22T16:03:49.797Z,97045.34
2023-05-22T16:06:18.112Z,97053.28
2023-05-22T16:08:46.289Z,97045.31
2023-05-22T16:11:14.666Z,97047.31
2023-05-22T16:13:43.058Z,97051.13
2023-05-22T16:16:13.465Z,97056.47
2023-05-22T16:18:41.738Z,97052.13
2023-05-22T16:21:09.973Z,97042.44
2023-05-22T16:23:38.185Z,97056.13
2023-05-22T16:26:06.522Z,97061.81
2023-05-22T16:28:34.782Z,97058.91
2023-05-22T16:31:03.072Z,97064.88
2023-05-22T16:33:32.779Z,97048.47
2023-05-22T16:36:00.925Z,97040.91
2023-05-22T16:38:29.139Z,97045.41
2023-05-22T16:40:58.087Z,97052.53
2023-05-22T16:43:26.292Z,97052.72
2023-05-22T16:45:55.337Z,97062.00
2023-05-22T16:48:23.963Z,97059.19
2023-05-22T16:50:53.603Z,97056.38
2023-05-22T16:53:21.951Z,97054.41
2023-05-22T16:55:50.196Z,97056.25
2023-05-22T16:58:18.536Z,97057.28
2023-05-22T17:00:47.019Z,97052.81
2023-05-22T17:03:15.412Z,97066.59
2023-05-22T17:05:44.464Z,97057.44
2023-05-22T17:08:14.124Z,97057.44
2023-05-22T17:10:42.700Z,97061.94
2023-05-22T17:13:12.673Z,97060.66
2023-05-22T17:15:41.147Z,97068.84
2023-05-22T17:18:09.627Z,97073.91
2023-05-22T17:20:37.906Z,97071.97
2023-05-22T17:23:07.350Z,97079.06
2023-05-22T17:25:37.059Z,97078.69
2023-05-22T17:28:06.041Z,97078.50
2023-05-22T17:30:35.187Z,97075.16
2023-05-22T17:33:05.348Z,97075.13
2023-05-22T17:35:35.130Z,97072.34
2023-05-22T17:38:04.962Z,97081.28
2023-05-22T17:40:43.927Z,97078.41
2023-05-22T17:43:19.656Z,97084.34
2023-05-22T17:45:50.592Z,97088.16
2023-05-22T17:48:27.575Z,97085.75
2023-05-22T17:50:57.741Z,97088.06
2023-05-22T17:53:27.815Z,97090.63
2023-05-22T17:55:57.348Z,97092.44
2023-05-22T17:58:28.041Z,97084.19
2023-05-22T18:00:57.706Z,97088.53
2023-05-22T18:03:27.391Z,97088.41
2023-05-22T18:05:56.589Z,97088.78
2023-05-22T18:08:25.805Z,97082.63
2023-05-22T18:10:56.434Z,97087.94
2023-05-22T18:13:25.514Z,97089.78
2023-05-22T18:15:56.381Z,97091.47
2023-05-22T18:18:25.574Z,97094.22
2023-05-22T18:20:55.186Z,97097.06
2023-05-22T18:23:24.451Z,97099.81
2023-05-22T18:25:53.719Z,97102.97
2023-05-22T18:28:27.048Z,97098.63
2023-05-22T18:30:59.198Z,97096.75
2023-05-22T18:33:28.842Z,97095.31
2023-05-22T18:35:58.480Z,97104.31
2023-05-22T18:38:28.017Z,97129.03
2023-05-22T18:40:57.971Z,97120.56
2023-05-22T18:43:28.824Z,97120.69
2023-05-22T18:45:59.857Z,97119.72
2023-05-22T18:48:29.847Z,97125.47
2023-05-22T18:50:59.554Z,97132.56
2023-05-22T18:53:28.813Z,97138.50
2023-05-22T18:55:58.034Z,97141.28
2023-05-22T18:58:27.485Z,97135.34
2023-05-22T19:00:57.146Z,97141.22
2023-05-22T19:03:27.962Z,97146.75
2023-05-22T19:05:57.322Z,97149.91
2023-05-22T19:08:27.465Z,97152.00
2023-05-22T19:11:00.515Z,97152.88
2023-05-22T19:13:29.978Z,97154.25
2023-05-22T19:15:59.389Z,97152.09
2023-05-22T19:18:30.141Z,97150.94
2023-05-22T19:20:59.680Z,97151.78
2023-05-22T19:23:30.056Z,97144.94
2023-05-22T19:26:00.685Z,97157.94
2023-05-22T19:28:31.656Z,97160.91
2023-05-22T19:31:03.574Z,97164.47
2023-05-22T19:33:34.406Z,97167.31
2023-05-22T19:36:03.626Z,97175.41
2023-05-22T19:38:32.793Z,97172.59
2023-05-22T19:41:01.902Z,97172.13
2023-05-22T19:43:31.830Z,97171.38
2023-05-22T19:46:00.928Z,97178.41
2023-05-22T19:48:32.173Z,97176.94
2023-05-22T19:51:02.562Z,97174.41
2023-05-22T19:53:32.705Z,97172.28
2023-05-22T19:56:02.447Z,97178.78
2023-05-22T19:58:31.349Z,97181.44
2023-05-22T20:01:00.145Z,97179.53
2023-05-22T20:03:29.020Z,97172.19
2023-05-22T20:05:57.823Z,97179.16
2023-05-22T20:08:28.978Z,97182.53
2023-05-22T20:10:57.513Z,97172.09
2023-05-22T20:13:25.729Z,97175.16
2023-05-22T20:15:54.062Z,97174.41
2023-05-22T20:18:23.416Z,97174.81
2023-05-22T20:20:52.625Z,97175.47
2023-05-22T20:23:21.859Z,97177.97
2023-05-22T20:25:52.382Z,97167.75
2023-05-22T20:28:21.425Z,97182.06
2023-05-22T20:30:51.785Z,97179.25
2023-05-22T20:33:20.830Z,97181.91
2023-05-22T20:35:52.820Z,97183.97
2023-05-22T20:38:22.692Z,97189.63
2023-05-22T20:40:53.178Z,97186.47
2023-05-22T20:43:22.010Z,97198.56
2023-05-22T20:45:50.781Z,97190.88
2023-05-22T20:48:19.533Z,97192.41
2023-05-22T20:50:48.966Z,97192.91
2023-05-22T20:53:17.628Z,97197.88
2023-05-22T20:55:46.659Z,97190.25
2023-05-22T20:58:17.372Z,97195.06
2023-05-22T21:00:45.889Z,97200.81
2023-05-22T21:03:14.062Z,97201.22
2023-05-22T21:05:42.320Z,97193.03
2023-05-22T21:08:10.607Z,97191.19
2023-05-22T21:10:39.100Z,97192.78
2023-05-22T21:13:07.760Z,97191.91
2023-05-22T21:15:37.413Z,97190.91
2023-05-22T21:18:05.646Z,97191.88
2023-05-22T21:20:33.825Z,97205.22
2023-05-22T21:23:01.999Z,97210.47
2023-05-22T21:25:30.412Z,97209.59
2023-05-22T21:27:58.574Z,97219.09
2023-05-22T21:30:26.716Z,97218.41
2023-05-22T21:32:56.383Z,97208.59
2023-05-22T21:35:24.611Z,97206.22
2023-05-22T21:37:53.814Z,97210.78
2023-05-22T21:40:22.006Z,97212.94
2023-05-22T21:42:50.154Z,97212.66
2023-05-22T21:45:18.309Z,97218.66
2023-05-22T21:47:46.510Z,97213.66
2023-05-22T21:50:16.317Z,97206.00
2023-05-22T21:52:44.534Z,97208.75
2023-05-22T21:55:12.729Z,97210.03
2023-05-22T21:57:40.958Z,97207.97
2023-05-22T22:00:10.212Z,97206.97
2023-05-22T22:02:38.402Z,97202.28
2023-05-22T22:05:07.301Z,97204.50
2023-05-22T22:07:36.891Z,97200.41
2023-05-22T22:10:05.751Z,97196.50
2023-05-22T22:12:33.893Z,97192.16
2023-05-22T22:15:02.457Z,97194.31
2023-05-22T22:17:30.706Z,97198.56
2023-05-22T22:19:58.876Z,97194.84
2023-05-22T22:22:27.044Z,97202.63
2023-05-22T22:24:56.635Z,97193.28
2023-05-22T22:27:25.554Z,97197.84
2023-05-22T22:29:53.670Z,97194.41
2023-05-22T22:32:21.838Z,97197.97
2023-05-22T22:34:53.764Z,97190.63
2023-05-22T22:37:22.077Z,97203.47
2023-05-22T22:39:50.215Z,97202.53
2023-05-22T22:42:19.749Z,97201.44
2023-05-22T22:44:47.910Z,97199.53
2023-05-22T22:47:16.061Z,97195.50
2023-05-22T22:49:44.197Z,97197.75
2023-05-22T22:52:12.353Z,97198.25
2023-05-22T22:54:41.930Z,97193.59
2023-05-22T22:57:12.685Z,97195.78
2023-05-22T22:59:42.992Z,97185.59
2023-05-22T23:02:11.169Z,97189.00
2023-05-22T23:04:39.372Z,97187.84
2023-05-22T23:07:08.106Z,97184.44
2023-05-22T23:09:36.417Z,97183.66
2023-05-22T23:12:06.443Z,97175.44
2023-05-22T23:14:37.653Z,97177.47
2023-05-22T23:17:07.234Z,97172.63
2023-05-22T23:19:35.472Z,97168.00
2023-05-22T23:22:03.668Z,97175.72
2023-05-22T23:24:31.886Z,97165.50
2023-05-22T23:27:00.159Z,97163.59
2023-05-22T23:29:28.306Z,97160.31
2023-05-22T23:31:56.676Z,97157.88
2023-05-22T23:34:26.275Z,97152.13
2023-05-22T23:36:54.416Z,97152.78
2023-05-22T23:39:22.570Z,97145.03
2023-05-22T23:41:54.278Z,97147.25
2023-05-22T23:44:22.816Z,97150.66
2023-05-22T23:46:51.090Z,97145.06
2023-05-22T23:49:19.293Z,97149.78
2023-05-22T23:51:48.922Z,97143.38
2023-05-22T23:54:18.042Z,97152.41
2023-05-22T23:56:46.241Z,97136.72
2023-05-22T23:59:14.486Z,97136.88
